Time;durP1;ratioP1;P1;durP2;ratioP2;P2;SDS_P1;SDS_P2;PMS_P1;PMS_P2;Temp;Humidity;BMP_temperature;BMP_pressure;BME280_temperature;BME280_humidity;BME280_pressure;Samples;Min_cycle;Max_cycle;Signal;HPM_P1;HPM_P2
2024/01/26 17:42:39;;;;;;;4.90;2.60;;;;;;;1.22;80.36;98907.64;102661;1293;600145;-27
2024/01/26 17:45:07;;;;;;;4.90;2.90;;;;;;;1.01;80.90;98908.36;104814;1268;61123;-27
2024/01/26 17:47:35;;;;;;;3.90;2.40;;;;;;;1.08;81.11;98905.15;104911;1270;61209;-28
2024/01/26 17:50:03;;;;;;;3.20;2.70;;;;;;;1.06;80.91;98904.73;104818;1267;74215;-28
2024/01/26 17:52:34;;;;;;;2.70;2.30;;;;;;;1.61;78.94;98906.38;104865;1266;73453;-28
2024/01/26 17:55:03;;;;;;;3.10;2.80;;;;;;;1.77;77.69;98909.71;104801;1268;71051;-27
2024/01/26 17:57:31;;;;;;;2.70;2.30;;;;;;;1.21;79.46;98904.40;105015;1263;61196;-27
2024/01/26 18:00:00;;;;;;;3.30;2.20;;;;;;;1.38;79.12;98905.55;105033;1267;61189;-27
2024/01/26 18:02:30;;;;;;;4.30;2.70;;;;;;;1.13;80.15;98894.71;105161;1264;72270;-27
2024/01/26 18:04:58;;;;;;;3.30;2.40;;;;;;;1.02;80.58;98892.46;105126;1263;74088;-27
2024/01/26 18:07:26;;;;;;;3.60;2.50;;;;;;;1.47;79.19;98904.41;105446;1256;71870;-27
2024/01/26 18:09:53;;;;;;;3.80;2.80;;;;;;;1.51;78.39;98897.58;105554;1258;61042;-27
2024/01/26 18:12:21;;;;;;;3.70;3.10;;;;;;;1.49;78.21;98894.27;105481;1260;61179;-28
2024/01/26 18:14:51;;;;;;;5.00;3.40;;;;;;;1.04;80.09;98892.33;105219;1263;73451;-27
2024/01/26 18:17:20;;;;;;;3.40;2.60;;;;;;;0.94;80.87;98892.09;105238;1262;74609;-27
2024/01/26 18:19:47;;;;;;;3.40;2.50;;;;;;;1.33;80.05;98894.13;105426;1258;73571;-27
2024/01/26 18:22:15;;;;;;;3.30;2.50;;;;;;;1.60;78.24;98895.46;105499;1258;61113;-27
2024/01/26 18:24:43;;;;;;;3.10;2.40;;;;;;;1.68;77.60;98891.34;105309;1264;61105;-27
2024/01/26 18:27:11;;;;;;;3.80;2.50;;;;;;;1.33;78.62;98886.95;105507;1263;75024;-27
2024/01/26 18:29:39;;;;;;;5.00;3.00;;;;;;;1.28;78.99;98883.94;105543;1262;74117;-27
2024/01/26 18:32:06;;;;;;;4.30;3.30;;;;;;;0.92;80.54;98892.02;105423;1262;72680;-27
2024/01/26 18:34:34;;;;;;;3.60;2.90;;;;;;;1.24;80.10;98890.24;105425;1260;61176;-27
2024/01/26 18:37:02;;;;;;;2.50;2.30;;;;;;;1.91;77.47;98896.56;105435;1260;61140;-27
2024/01/26 18:39:30;;;;;;;4.10;2.70;;;;;;;1.97;76.43;98892.17;105267;1258;75060;-28
2024/01/26 18:41:58;;;;;;;4.00;2.80;;;;;;;1.69;77.23;98889.41;105159;1260;73454;-27
2024/01/26 18:44:26;;;;;;;3.40;2.50;;;;;;;1.49;78.00;98886.57;105015;1260;72224;-27
2024/01/26 18:46:57;;;;;;;4.40;2.80;;;;;;;1.12;79.31;98882.09;105026;1263;61269;-27
2024/01/26 18:49:25;;;;;;;4.80;2.90;;;;;;;1.30;79.27;98888.80;105009;1259;61074;-27
2024/01/26 18:51:53;;;;;;;3.70;2.60;;;;;;;1.47;78.34;98890.06;105241;1261;71398;-27
2024/01/26 18:54:21;;;;;;;4.40;2.40;;;;;;;1.91;76.70;98896.23;105177;1265;76717;-28
2024/01/26 18:56:49;;;;;;;3.90;2.70;;;;;;;1.91;76.50;98898.14;105078;1261;72861;-27
2024/01/26 18:59:18;;;;;;;4.80;2.70;;;;;;;1.75;76.75;98901.11;104941;1265;61162;-27
2024/01/26 19:01:46;;;;;;;3.30;2.50;;;;;;;1.43;77.91;98898.30;105170;1259;61123;-27
2024/01/26 19:04:15;;;;;;;3.90;3.00;;;;;;;1.29;78.57;98895.69;105210;1259;72930;-27
2024/01/26 19:06:43;;;;;;;2.10;1.70;;;;;;;1.16;79.30;98892.83;105102;1265;73959;-27
2024/01/26 19:09:11;;;;;;;3.60;2.70;;;;;;;1.81;77.01;98887.77;105227;1263;72336;-27
2024/01/26 19:11:41;;;;;;;3.50;2.40;;;;;;;1.75;76.29;98881.61;105211;1265;61205;-27
2024/01/26 19:14:09;;;;;;;2.90;2.40;;;;;;;1.88;76.05;98885.58;105131;1261;61123;-27
2024/01/26 19:16:37;;;;;;;2.50;1.90;;;;;;;1.74;76.51;98885.55;105282;1265;71604;-27
2024/01/26 19:19:05;;;;;;;2.90;2.30;;;;;;;1.53;77.31;98882.93;105185;1267;75984;-28
2024/01/26 19:21:33;;;;;;;2.50;1.80;;;;;;;1.40;78.26;98882.89;105152;1266;72578;-27
2024/01/26 19:24:01;;;;;;;4.10;2.50;;;;;;;1.79;76.86;98876.91;105192;1259;61078;-27
2024/01/26 19:26:30;;;;;;;3.90;2.50;;;;;;;1.91;75.65;98880.83;105266;1265;61195;-27
2024/01/26 19:28:57;;;;;;;4.50;2.70;;;;;;;1.86;75.94;98882.27;105050;1261;71187;-27
2024/01/26 19:31:26;;;;;;;2.10;1.80;;;;;;;1.59;76.86;98876.33;105115;1264;73976;-27
2024/01/26 19:33:54;;;;;;;4.20;2.50;;;;;;;1.51;77.14;98877.92;105396;1260;72689;-27
2024/01/26 19:44:01;;;;;;;2.30;1.90;;;;;;;2.21;75.10;98879.54;102753;1294;600180;-27
2024/01/26 19:46:29;;;;;;;3.30;2.70;;;;;;;1.91;75.41;98876.89;104896;1270;61025;-28
2024/01/26 19:48:57;;;;;;;3.60;2.80;;;;;;;1.89;75.81;98868.91;104884;1266;61112;-28
2024/01/26 19:51:25;;;;;;;3.80;2.90;;;;;;;1.56;76.80;98864.70;104854;1266;71201;-28
2024/01/26 19:53:53;;;;;;;3.80;3.20;;;;;;;1.22;78.20;98864.52;105471;1263;76125;-28
2024/01/26 19:56:20;;;;;;;3.40;2.30;;;;;;;1.45;78.41;98865.33;105432;1264;74756;-28
2024/01/26 19:58:50;;;;;;;6.90;2.30;;;;;;;1.85;76.51;98868.77;105483;1258;193886;-28
2024/01/26 20:01:19;;;;;;;3.90;2.70;;;;;;;1.89;76.11;98869.96;105546;1262;61074;-28
2024/01/26 20:03:50;;;;;;;4.20;3.10;;;;;;;1.47;77.40;98864.24;105488;1262;73676;-28
2024/01/26 20:06:18;;;;;;;5.40;3.00;;;;;;;1.30;78.23;98864.17;105661;1259;75578;-28
2024/01/26 20:08:46;;;;;;;3.40;2.50;;;;;;;1.29;78.54;98866.27;105622;1263;75329;-28
2024/01/26 20:11:15;;;;;;;3.50;3.00;;;;;;;1.46;78.23;98864.61;105527;1256;61174;-28
2024/01/26 20:13:42;;;;;;;3.00;2.40;;;;;;;1.76;76.65;98859.60;105636;1257;62039;-28
2024/01/26 20:16:13;;;;;;;3.20;2.20;;;;;;;1.73;76.49;98853.59;105620;1261;72917;-28
2024/01/26 20:18:41;;;;;;;4.90;2.40;;;;;;;1.77;76.26;98855.14;105352;1259;74732;-28
2024/01/26 20:21:10;;;;;;;3.40;2.50;;;;;;;1.42;77.12;98851.63;105603;1260;72672;-28
2024/01/26 20:23:40;;;;;;;5.00;3.00;;;;;;;1.28;78.16;98846.98;105481;1265;61138;-28
2024/01/26 20:26:09;;;;;;;3.90;2.20;;;;;;;1.26;78.61;98845.37;105590;1262;61238;-28
2024/01/26 20:28:37;;;;;;;3.80;2.40;;;;;;;1.77;76.92;98842.11;105599;1261;72613;-28
2024/01/26 20:31:06;;;;;;;5.00;2.50;;;;;;;1.88;75.89;98833.34;105573;1263;75361;-28
2024/01/26 20:33:43;;;;;;;4.20;3.20;;;;;;;1.81;75.95;98837.66;105658;1260;75107;-28
2024/01/26 20:36:13;;;;;;;4.00;2.50;;;;;;;1.49;76.89;98829.59;105277;1257;61193;-28
2024/01/26 20:38:42;;;;;;;3.10;2.30;;;;;;;1.23;78.38;98830.77;105626;1255;61066;-28
2024/01/26 20:41:10;;;;;;;3.90;2.40;;;;;;;1.32;78.28;98830.55;105612;1260;73399;-27
2024/01/26 20:43:38;;;;;;;2.90;2.40;;;;;;;1.39;78.48;98830.91;105606;1260;76548;-28
2024/01/26 20:46:09;;;;;;;3.60;2.90;;;;;;;1.93;75.98;98834.98;105437;1262;74232;-25
2024/01/26 20:48:37;;;;;;;3.70;2.30;;;;;;;2.04;75.14;98837.72;105581;1260;61149;-28
2024/01/26 20:51:05;;;;;;;3.90;2.60;;;;;;;1.83;75.51;98835.30;105677;1260;61155;-28
2024/01/26 20:53:33;;;;;;;3.40;2.70;;;;;;;1.66;76.36;98835.47;105602;1263;72991;-28
2024/01/26 20:56:02;;;;;;;3.20;2.00;;;;;;;1.61;76.54;98836.22;105458;1262;74332;-28
2024/01/26 20:58:31;;;;;;;4.70;2.60;;;;;;;1.33;77.71;98832.91;105643;1260;71381;-28
2024/01/26 21:00:59;;;;;;;3.20;2.40;;;;;;;1.41;78.00;98837.46;105634;1259;61167;-28
2024/01/26 21:03:27;;;;;;;2.40;1.90;;;;;;;2.05;75.52;98836.80;105488;1262;61036;-28
2024/01/26 21:05:55;;;;;;;2.20;1.90;;;;;;;1.88;75.42;98832.69;105333;1261;74698;-28
2024/01/26 21:08:23;;;;;;;3.30;2.30;;;;;;;1.64;75.94;98832.10;105286;1256;74325;-28
2024/01/26 21:10:50;;;;;;;3.40;2.50;;;;;;;1.43;76.85;98827.83;105553;1267;72991;-27
2024/01/26 21:13:18;;;;;;;4.00;2.30;;;;;;;1.41;77.28;98833.89;105191;1261;61064;-28
2024/01/26 21:23:24;;;;;;;3.00;2.30;;;;;;;1.90;75.03;98829.31;102689;1294;599433;-25
2024/01/26 21:25:52;;;;;;;3.90;2.50;;;;;;;1.85;75.04;98829.40;104904;1269;61190;-25
2024/01/26 21:28:19;;;;;;;4.00;2.90;;;;;;;1.64;75.87;98831.24;104895;1270;62044;-26
2024/01/26 21:30:48;;;;;;;4.50;2.50;;;;;;;1.49;76.26;98834.21;104773;1272;73386;-27
2024/01/26 21:33:16;;;;;;;2.50;2.00;;;;;;;1.32;77.15;98837.38;104894;1266;75294;-28
2024/01/26 21:35:44;;;;;;;2.40;2.10;;;;;;;1.78;75.63;98838.45;104801;1272;71398;-28
2024/01/26 21:38:12;;;;;;;3.70;2.70;;;;;;;2.09;74.17;98835.94;104791;1269;174269;-28
2024/01/26 21:40:40;;;;;;;4.30;2.40;;;;;;;1.86;74.47;98834.50;104832;1269;61182;-28
2024/01/26 21:43:08;;;;;;;6.90;2.80;;;;;;;1.72;74.94;98827.77;105133;1274;71002;-28
2024/01/26 21:45:35;;;;;;;4.00;2.60;;;;;;;1.32;76.42;98820.95;104855;1272;73068;-28
2024/01/26 21:55:43;;;;;;;4.30;2.90;;;;;;;2.07;74.10;98815.82;102655;1292;599267;-26
2024/01/26 22:05:51;;;;;;;4.90;3.00;;;;;;;1.41;75.82;98812.52;102661;1294;599555;-27
2024/01/26 22:08:18;;;;;;;6.00;3.40;;;;;;;1.57;75.41;98814.84;104905;1271;61091;-26
2024/01/26 22:17:16;;;;;;;5.60;3.20;;;;;;;1.76;74.40;98801.73;102688;1295;599332;-27
2024/01/26 22:19:43;;;;;;;5.20;3.00;;;;;;;1.44;75.36;98799.52;104803;1270;61227;-28
2024/01/26 22:22:11;;;;;;;5.80;4.00;;;;;;;1.33;76.00;98795.95;104886;1264;61231;-28
2024/01/26 22:32:39;;;;;;;5.60;3.30;;;;;;;2.25;72.47;98801.07;102498;1296;615042;-26
2024/01/26 22:35:06;;;;;;;5.60;3.30;;;;;;;2.17;72.41;98796.48;105126;1267;61075;-26
2024/01/26 22:37:33;;;;;;;6.10;3.20;;;;;;;1.90;73.18;98792.67;105113;1269;61158;-26
2024/01/26 22:40:00;;;;;;;5.60;3.00;;;;;;;1.68;73.75;98795.46;105102;1269;72164;-27
2024/01/26 22:42:29;;;;;;;5.50;3.00;;;;;;;1.43;74.73;98797.20;104863;1271;73182;-26
2024/01/26 22:44:56;;;;;;;3.20;2.60;;;;;;;1.24;75.98;98796.38;104657;1267;182026;-26
2024/01/26 22:47:22;;;;;;;5.00;3.00;;;;;;;1.81;74.36;98795.72;104831;1262;61035;-27
2024/01/26 22:49:50;;;;;;;7.90;2.70;;;;;;;2.25;72.57;98795.39;104973;1269;61131;-26
2024/01/26 22:52:17;;;;;;;4.60;2.90;;;;;;;2.16;72.10;98792.58;104873;1264;71242;-27
2024/01/26 22:54:44;;;;;;;5.00;2.80;;;;;;;2.01;72.75;98793.00;105255;1264;74174;-26
2024/01/26 22:57:11;;;;;;;4.30;2.90;;;;;;;1.64;73.89;98793.59;105196;1264;72671;-26
2024/01/26 22:59:38;;;;;;;3.70;2.80;;;;;;;1.42;74.97;98790.20;105021;1264;60990;-26
2024/01/26 23:02:04;;;;;;;6.10;3.10;;;;;;;1.36;75.21;98795.45;104987;1264;61186;-27
2024/01/26 23:04:31;;;;;;;6.00;3.40;;;;;;;1.60;74.82;98792.61;105125;1264;72953;-26
2024/01/26 23:06:58;;;;;;;6.90;2.70;;;;;;;1.98;73.34;98794.05;105193;1269;74394;-26
2024/01/26 23:09:25;;;;;;;5.10;3.30;;;;;;;2.06;72.74;98793.98;105063;1264;72650;-26
2024/01/26 23:11:52;;;;;;;5.50;2.80;;;;;;;2.07;72.83;98794.06;105103;1264;61087;-26
2024/01/26 23:14:19;;;;;;;4.90;3.40;;;;;;;1.70;73.96;98794.20;104845;1263;61166;-26
2024/01/26 23:16:46;;;;;;;4.40;2.10;;;;;;;1.59;74.60;98798.80;105048;1264;73621;-26
2024/01/26 23:19:17;;;;;;;4.40;2.90;;;;;;;1.41;74.68;98797.82;105207;1266;74204;-26
2024/01/26 23:21:47;;;;;;;2.80;2.20;;;;;;;1.07;76.18;98802.28;105151;1266;72601;-26
2024/01/26 23:24:14;;;;;;;5.00;2.90;;;;;;;1.71;74.44;98798.77;104969;1263;61119;-26
2024/01/26 23:26:41;;;;;;;4.90;3.20;;;;;;;1.89;73.18;98792.55;104979;1266;61101;-26
2024/01/26 23:29:08;;;;;;;4.90;2.50;;;;;;;1.88;72.95;98790.91;105007;1263;73036;-26
2024/01/26 23:31:35;;;;;;;2.80;2.40;;;;;;;1.68;73.45;98790.86;104921;1264;74063;-26
2024/01/26 23:34:04;;;;;;;6.40;3.10;;;;;;;1.48;74.30;98789.94;104831;1266;73160;-27
2024/01/26 23:36:31;;;;;;;6.20;2.90;;;;;;;1.30;75.10;98792.84;104954;1264;61064;-26
2024/01/26 23:38:59;;;;;;;6.40;3.40;;;;;;;1.13;75.77;98789.70;105112;1269;61185;-26
2024/01/26 23:41:27;;;;;;;3.40;2.30;;;;;;;1.20;75.83;98795.36;105177;1264;72722;-26
2024/01/26 23:43:55;;;;;;;1.50;1.30;;;;;;;1.85;74.07;98792.27;104792;1267;74323;-26
2024/01/26 23:46:22;;;;;;;4.90;2.60;;;;;;;2.11;71.79;98789.73;105153;1263;72658;-27
2024/01/26 23:48:48;;;;;;;4.80;3.30;;;;;;;1.89;72.16;98787.58;105137;1264;61074;-26
2024/01/26 23:51:15;;;;;;;3.60;2.30;;;;;;;1.72;72.84;98788.28;104933;1264;61067;-26
2024/01/26 23:53:42;;;;;;;6.00;3.20;;;;;;;1.49;73.54;98785.96;105107;1264;72699;-26
2024/01/26 23:56:09;;;;;;;7.90;2.70;;;;;;;1.34;74.28;98784.11;105059;1264;74389;-27
2024/01/26 23:58:36;;;;;;;6.10;3.30;;;;;;;1.21;75.17;98787.64;104817;1272;72670;-26
